createdAt,value
2023-01-02T00:00:05.863Z,5.82
2023-01-02T00:02:34.751Z,5.63
2023-01-02T00:05:04.088Z,6.50
2023-01-02T00:07:30.675Z,6.18
2023-01-02T00:09:57.056Z,6.20
2023-01-02T00:12:23.464Z,5.80
2023-01-02T00:14:49.817Z,6.13
2023-01-02T00:17:18.834Z,5.95
2023-01-02T00:19:45.159Z,5.78
2023-01-02T00:22:13.865Z,6.43
2023-01-02T00:24:40.201Z,6.40
2023-01-02T00:27:06.523Z,6.18
2023-01-02T00:29:32.823Z,6.07
2023-01-02T00:32:00.106Z,6.38
2023-01-02T00:34:26.732Z,7.40
2023-01-02T00:36:53.130Z,6.25
2023-01-02T00:39:19.477Z,7.38
2023-01-02T00:41:45.803Z,5.97
2023-01-02T00:44:12.113Z,6.85
2023-01-02T00:46:38.405Z,6.43
2023-01-02T00:49:04.816Z,6.85
2023-01-02T00:51:31.250Z,6.43
2023-01-02T00:53:57.692Z,7.50
2023-01-02T00:56:24.029Z,6.53
2023-01-02T00:58:53.292Z,6.63
2023-01-02T01:01:19.646Z,5.60
2023-01-02T01:03:46.300Z,6.47
2023-01-02T01:06:12.899Z,6.55
2023-01-02T01:08:39.341Z,6.47
2023-01-02T01:11:10.386Z,6.55
2023-01-02T01:13:48.736Z,5.80
2023-01-02T01:16:16.202Z,5.85
2023-01-02T01:18:42.929Z,5.43
2023-01-02T01:21:16.969Z,5.43
2023-01-02T01:23:43.645Z,5.80
2023-01-02T01:26:11.500Z,6.03
2023-01-02T01:28:38.171Z,6.22
2023-01-02T01:31:07.788Z,5.47
2023-01-02T01:33:34.711Z,5.40
2023-01-02T01:36:04.935Z,5.15
2023-01-02T01:38:31.948Z,5.63
2023-01-02T01:40:58.436Z,5.97
2023-01-02T01:43:42.935Z,6.05
2023-01-02T01:46:15.373Z,5.53
2023-01-02T01:48:41.706Z,5.90
2023-01-02T01:51:08.158Z,6.60
2023-01-02T01:53:35.155Z,6.15
2023-01-02T01:56:05.393Z,5.85
2023-01-02T01:58:34.409Z,5.90
2023-01-02T02:01:01.321Z,6.10
2023-01-02T02:03:29.269Z,5.93
2023-01-02T02:05:56.875Z,5.95
2023-01-02T02:08:41.988Z,6.20
2023-01-02T02:11:09.575Z,6.22
2023-01-02T02:13:35.906Z,6.30
2023-01-02T02:16:17.484Z,5.90
2023-01-02T02:18:52.842Z,5.78
2023-01-02T02:21:19.125Z,5.80
2023-01-02T02:23:48.440Z,6.13
2023-01-02T02:26:29.175Z,5.45
2023-01-02T02:29:12.591Z,5.53
2023-01-02T02:31:42.058Z,5.20
2023-01-02T02:34:14.492Z,5.05
2023-01-02T02:36:44.784Z,5.70
2023-01-02T02:39:29.205Z,4.93
2023-01-02T02:42:02.485Z,5.45
2023-01-02T02:44:28.763Z,4.55
2023-01-02T02:47:02.949Z,4.57
2023-01-02T02:49:29.243Z,4.43
2023-01-02T02:52:02.238Z,5.30
2023-01-02T02:54:34.315Z,5.15
2023-01-02T02:57:01.857Z,4.82
2023-01-02T02:59:28.564Z,4.43
2023-01-02T03:01:55.104Z,4.55
2023-01-02T03:04:22.452Z,3.95
2023-01-02T03:06:51.865Z,4.22
2023-01-02T03:09:38.466Z,4.68
2023-01-02T03:12:07.658Z,4.32
2023-01-02T03:14:44.653Z,4.18
2023-01-02T03:17:29.427Z,4.20
2023-01-02T03:19:58.645Z,3.95
2023-01-02T03:22:30.074Z,4.50
2023-01-02T03:24:57.165Z,3.92
2023-01-02T03:27:25.601Z,3.95
2023-01-02T03:29:59.305Z,3.97
2023-01-02T03:32:45.882Z,4.60
2023-01-02T03:35:15.411Z,4.28
2023-01-02T03:37:45.509Z,4.40
2023-01-02T03:40:14.689Z,3.85
2023-01-02T03:42:52.807Z,4.38
2023-01-02T03:45:22.473Z,3.45
2023-01-02T03:47:55.195Z,3.38
2023-01-02T03:50:41.750Z,4.38
2023-01-02T03:53:08.199Z,4.00
2023-01-02T03:55:36.828Z,3.72
2023-01-02T03:58:05.864Z,3.67
2023-01-02T04:00:36.718Z,4.22
2023-01-02T04:05:32.784Z,3.60
2023-01-02T04:08:18.058Z,3.65
2023-01-02T04:10:45.140Z,4.13
2023-01-02T04:13:20.950Z,3.40
2023-01-02T04:15:48.297Z,3.65
2023-01-02T04:18:23.154Z,3.40
2023-01-02T04:20:51.543Z,4.50
2023-01-02T04:23:20.912Z,4.90
2023-01-02T04:25:56.159Z,4.90
2023-01-02T04:28:24.480Z,3.70
2023-01-02T04:30:53.905Z,3.78
2023-01-02T04:33:22.154Z,4.28
2023-01-02T04:35:48.620Z,4.25
2023-01-02T04:38:15.032Z,3.65
2023-01-02T04:40:41.427Z,4.35
2023-01-02T04:43:13.906Z,4.50
2023-01-02T04:45:40.243Z,3.97
2023-01-02T04:48:06.705Z,3.80
2023-01-02T04:50:33.028Z,3.92
2023-01-02T04:52:59.343Z,4.45
2023-01-02T04:55:25.691Z,3.95
2023-01-02T04:57:51.975Z,3.97
2023-01-02T05:00:18.358Z,3.72
2023-01-02T05:02:44.835Z,3.53
2023-01-02T05:05:11.189Z,4.20
2023-01-02T05:07:43.159Z,4.35
2023-01-02T05:10:09.695Z,4.10
2023-01-02T05:12:36.759Z,4.22
2023-01-02T05:15:03.685Z,4.85
2023-01-02T05:17:33.902Z,4.35
2023-01-02T05:20:00.215Z,5.15
2023-01-02T05:22:45.211Z,4.43
2023-01-02T05:25:11.593Z,4.45
2023-01-02T05:27:37.995Z,4.43
2023-01-02T05:30:04.715Z,4.22
2023-01-02T05:32:31.167Z,4.85
2023-01-02T05:34:57.570Z,4.65
2023-01-02T05:37:24.047Z,4.45
2023-01-02T05:39:50.536Z,4.40
2023-01-02T05:42:16.891Z,4.53
2023-01-02T05:44:43.187Z,4.90
2023-01-02T05:47:12.193Z,4.60
2023-01-02T05:49:42.715Z,5.20
2023-01-02T05:52:11.616Z,4.45
2023-01-02T05:54:37.995Z,4.72
2023-01-02T05:57:04.347Z,5.47
2023-01-02T05:59:34.504Z,4.65
2023-01-02T06:02:02.501Z,3.10
2023-01-02T06:04:28.887Z,1.80
2023-01-02T06:06:55.377Z,1.80
2023-01-02T06:09:21.698Z,1.60
2023-01-02T06:11:48.103Z,1.40
2023-01-02T06:14:14.473Z,1.20
2023-01-02T06:16:41.062Z,1.05
2023-01-02T06:19:07.652Z,1.00
2023-01-02T06:21:34.070Z,0.80
2023-01-02T06:24:00.452Z,1.00
2023-01-02T06:26:32.771Z,0.77
2023-01-02T06:29:01.433Z,0.90
2023-01-02T06:31:29.530Z,1.13
2023-01-02T06:33:57.057Z,1.10
2023-01-02T06:36:23.514Z,1.20
2023-01-02T06:38:50.144Z,1.20
2023-01-02T06:41:19.529Z,1.45
2023-01-02T06:43:47.009Z,1.85
2023-01-02T06:46:13.885Z,1.70
2023-01-02T06:48:40.589Z,1.60
2023-01-02T06:51:07.674Z,1.98
2023-01-02T06:53:34.790Z,2.03
2023-01-02T06:56:01.215Z,1.98
2023-01-02T06:58:29.694Z,2.45
2023-01-02T07:01:01.167Z,2.47
2023-01-02T07:03:27.491Z,2.38
2023-01-02T07:05:53.903Z,2.40
2023-01-02T07:08:23.337Z,2.78
2023-01-02T07:10:53.087Z,2.95
2023-01-02T07:13:19.653Z,2.73
2023-01-02T07:15:46.053Z,2.88
2023-01-02T07:18:12.694Z,2.88
2023-01-02T07:20:39.051Z,3.00
2023-01-02T07:23:05.352Z,2.47
2023-01-02T07:25:31.845Z,2.97
2023-01-02T07:27:59.424Z,3.08
2023-01-02T07:30:25.776Z,3.00
2023-01-02T07:32:53.237Z,3.13
2023-01-02T07:35:19.643Z,3.03
2023-01-02T07:37:46.003Z,3.20
2023-01-02T07:40:12.458Z,3.17
2023-01-02T07:42:38.870Z,3.00
2023-01-02T07:45:05.470Z,2.80
2023-01-02T07:47:32.187Z,2.50
2023-01-02T07:49:58.499Z,2.97
2023-01-02T07:52:24.820Z,2.45
2023-01-02T07:54:51.112Z,2.30
2023-01-02T07:57:17.463Z,2.30
2023-01-02T07:59:46.948Z,2.08
2023-01-02T08:02:13.562Z,2.22
2023-01-02T08:04:39.963Z,2.65
2023-01-02T08:07:06.325Z,1.98
2023-01-02T08:09:32.723Z,1.83
2023-01-02T08:11:59.114Z,1.67
2023-01-02T08:14:25.424Z,2.13
2023-01-02T08:16:51.796Z,2.10
2023-01-02T08:19:18.215Z,1.83
2023-01-02T08:21:44.542Z,1.77
2023-01-02T08:24:10.945Z,1.95
2023-01-02T08:26:37.444Z,2.10
2023-01-02T08:29:07.130Z,2.38
2023-01-02T08:31:33.468Z,2.38
2023-01-02T08:33:59.753Z,2.70
2023-01-02T08:36:28.846Z,2.75
2023-01-02T08:38:55.207Z,3.08
2023-01-02T08:41:31.754Z,3.50
2023-01-02T08:43:58.058Z,2.65
2023-01-02T08:46:24.512Z,3.53
2023-01-02T08:48:50.974Z,3.05
2023-01-02T08:51:17.284Z,3.50
2023-01-02T08:53:43.731Z,3.25
2023-01-02T08:56:17.296Z,3.58
2023-01-02T08:58:46.239Z,3.05
2023-01-02T09:01:16.807Z,3.25
2023-01-02T09:03:43.263Z,2.90
2023-01-02T09:06:09.546Z,4.22
2023-01-02T09:08:35.895Z,2.63
2023-01-02T09:11:16.150Z,3.25
2023-01-02T09:13:42.700Z,3.60
2023-01-02T09:16:09.266Z,4.32
2023-01-02T09:18:36.047Z,4.70
2023-01-02T09:21:02.477Z,4.75
2023-01-02T09:23:29.893Z,4.38
2023-01-02T09:26:00.599Z,4.80
2023-01-02T09:28:27.665Z,4.88
2023-01-02T09:30:56.332Z,4.15
2023-01-02T09:33:23.075Z,4.55
2023-01-02T09:35:49.706Z,4.20
2023-01-02T09:38:16.184Z,4.40
2023-01-02T09:40:46.758Z,4.07
2023-01-02T09:43:14.254Z,3.60
2023-01-02T09:45:42.937Z,3.70
2023-01-02T09:48:14.992Z,3.38
2023-01-02T09:50:41.353Z,2.97
2023-01-02T09:53:07.706Z,2.72
2023-01-02T09:55:46.368Z,3.58
2023-01-02T09:58:32.964Z,2.53
2023-01-02T10:00:59.475Z,2.22
2023-01-02T10:03:35.042Z,2.30
2023-01-02T10:06:04.236Z,2.05
2023-01-02T10:08:51.816Z,2.13
2023-01-02T10:11:30.464Z,2.00
2023-01-02T10:14:29.881Z,1.60
2023-01-02T10:17:04.274Z,1.90
2023-01-02T10:19:52.306Z,1.75
2023-01-02T10:22:27.838Z,2.22
2023-01-02T10:25:01.878Z,1.73
2023-01-02T10:27:31.516Z,1.70
2023-01-02T10:30:03.927Z,2.53
2023-01-02T10:32:30.802Z,2.63
2023-01-02T10:35:10.870Z,2.53
2023-01-02T10:37:37.342Z,2.43
2023-01-02T10:40:04.530Z,2.20
2023-01-02T10:42:32.443Z,1.90
2023-01-02T10:44:58.807Z,1.75
2023-01-02T10:47:31.477Z,1.50
2023-01-02T10:49:58.212Z,2.00
2023-01-02T10:52:29.646Z,1.63
2023-01-02T10:55:00.070Z,1.30
2023-01-02T10:57:36.133Z,1.40
2023-01-02T11:00:04.329Z,1.50
2023-01-02T11:02:33.122Z,1.65
2023-01-02T11:05:01.067Z,1.27
2023-01-02T11:07:28.911Z,1.42
2023-01-02T11:09:56.097Z,1.42
2023-01-02T11:12:27.063Z,2.00
2023-01-02T11:15:09.463Z,1.60
2023-01-02T11:17:40.580Z,1.95
2023-01-02T11:20:18.367Z,1.35
2023-01-02T11:22:44.795Z,1.35
2023-01-02T11:25:37.322Z,1.23
2023-01-02T11:28:03.923Z,1.35
2023-01-02T11:30:35.951Z,1.27
2023-01-02T11:33:05.060Z,1.45
2023-01-02T11:35:34.384Z,1.23
2023-01-02T11:38:01.425Z,1.20
2023-01-02T11:40:31.941Z,1.50
2023-01-02T11:43:19.814Z,1.50
2023-01-02T11:45:46.318Z,1.67
2023-01-02T11:48:15.222Z,1.33
2023-01-02T11:50:42.787Z,2.25
2023-01-02T11:53:16.786Z,1.60
2023-01-02T11:55:58.349Z,1.92
2023-01-02T11:58:30.755Z,1.08
2023-01-02T12:01:06.246Z,1.30
2023-01-02T12:03:33.433Z,1.20
2023-01-02T12:06:11.973Z,1.55
2023-01-02T12:08:53.653Z,1.35
2023-01-02T12:11:29.101Z,1.52
2023-01-02T12:14:04.708Z,1.38
2023-01-02T12:16:49.941Z,1.63
2023-01-02T12:19:27.430Z,1.77
2023-01-02T12:21:59.760Z,1.98
2023-01-02T12:24:44.858Z,1.70
2023-01-02T12:27:15.020Z,2.30
2023-01-02T12:29:51.857Z,1.70
2023-01-02T12:32:18.928Z,4.75
2023-01-02T12:34:45.289Z,2.83
2023-01-02T12:37:19.967Z,2.15
2023-01-02T12:39:55.254Z,2.42
2023-01-02T12:42:33.741Z,2.00
2023-01-02T12:45:00.482Z,2.35
2023-01-02T12:47:36.026Z,2.00
2023-01-02T12:50:02.388Z,2.40
2023-01-02T12:52:42.807Z,2.40
2023-01-02T12:55:28.055Z,2.70
2023-01-02T12:57:54.476Z,2.60
2023-01-02T13:00:20.948Z,3.72
2023-01-02T13:03:00.096Z,3.13
2023-01-02T13:05:31.831Z,3.13
2023-01-02T13:08:14.347Z,3.47
2023-01-02T13:10:41.177Z,3.28
2023-01-02T13:13:09.321Z,3.95
2023-01-02T13:15:37.489Z,3.88
2023-01-02T13:18:07.801Z,4.13
2023-01-02T13:20:42.809Z,4.80
2023-01-02T13:23:28.131Z,4.78
2023-01-02T13:25:57.149Z,5.07
2023-01-02T13:28:24.655Z,5.60
2023-01-02T13:30:57.562Z,5.65
2023-01-02T13:33:42.519Z,5.65
2023-01-02T13:36:17.805Z,6.18
2023-01-02T13:38:45.392Z,6.05
2023-01-02T13:41:15.133Z,6.65
2023-01-02T13:43:41.672Z,6.35
2023-01-02T13:46:19.248Z,7.25
2023-01-02T13:49:01.396Z,6.82
2023-01-02T13:51:33.088Z,6.55
2023-01-02T13:54:01.457Z,6.97
2023-01-02T13:56:28.809Z,6.80
2023-01-02T13:58:57.955Z,6.95
2023-01-02T14:01:24.662Z,7.32
2023-01-02T14:03:51.064Z,7.13
2023-01-02T14:06:27.058Z,7.60
2023-01-02T14:09:05.620Z,7.80
2023-01-02T14:11:55.545Z,6.95
2023-01-02T14:14:22.421Z,7.93
2023-01-02T14:17:01.103Z,8.38
2023-01-02T14:19:27.537Z,8.05
2023-01-02T14:22:02.302Z,8.43
2023-01-02T14:24:37.629Z,8.57
2023-01-02T14:27:17.575Z,10.25
2023-01-02T14:29:52.502Z,10.52
2023-01-02T14:32:19.847Z,8.30
2023-01-02T14:34:47.697Z,8.00
2023-01-02T14:37:26.470Z,8.15
2023-01-02T14:39:53.070Z,8.18
2023-01-02T14:42:41.516Z,7.95
2023-01-02T14:45:11.137Z,7.72
2023-01-02T14:47:42.894Z,8.38
2023-01-02T14:50:18.570Z,7.80
2023-01-02T14:52:48.976Z,6.63
2023-01-02T14:55:20.490Z,7.15
2023-01-02T14:57:48.602Z,7.13
2023-01-02T15:00:29.532Z,7.05
2023-01-02T15:05:37.475Z,6.80
2023-01-02T15:08:05.491Z,6.70
2023-01-02T15:10:31.876Z,6.90
2023-01-02T15:13:07.164Z,6.40
2023-01-02T15:15:38.331Z,6.57
2023-01-02T15:18:06.651Z,6.00
2023-01-02T15:20:34.402Z,6.35
2023-01-02T15:23:01.166Z,5.82
2023-01-02T15:25:31.541Z,6.10
2023-01-02T15:27:57.847Z,5.60
2023-01-02T15:30:26.944Z,6.03
2023-01-02T15:32:53.294Z,5.55
2023-01-02T15:35:21.423Z,5.82
2023-01-02T15:37:48.573Z,4.47
2023-01-02T15:40:16.216Z,5.50
2023-01-02T15:43:02.049Z,5.35
2023-01-02T15:45:30.480Z,4.88
2023-01-02T15:47:57.279Z,5.28
2023-01-02T15:50:27.833Z,5.47
2023-01-02T15:53:17.304Z,5.35
2023-01-02T15:55:43.631Z,5.07
2023-01-02T15:58:29.698Z,5.03
2023-01-02T16:01:14.820Z,6.25
2023-01-02T16:04:01.141Z,5.80
2023-01-02T16:06:30.790Z,5.55
2023-01-02T16:08:58.190Z,5.72
2023-01-02T16:11:24.914Z,5.50
2023-01-02T16:14:16.582Z,5.60
2023-01-02T16:16:48.794Z,6.28
2023-01-02T16:19:21.183Z,6.50
2023-01-02T16:21:48.482Z,6.90
2023-01-02T16:24:17.489Z,5.68
2023-01-02T16:26:51.415Z,8.05
2023-01-02T16:29:30.799Z,7.97
2023-01-02T16:32:00.953Z,5.15
2023-01-02T16:34:29.123Z,6.22
2023-01-02T16:37:10.727Z,5.85
2023-01-02T16:39:42.150Z,7.43
2023-01-02T16:42:27.280Z,6.07
2023-01-02T16:44:55.205Z,8.40
2023-01-02T16:47:25.054Z,6.68
2023-01-02T16:49:51.472Z,7.07
2023-01-02T16:52:17.951Z,6.07
2023-01-02T16:54:46.990Z,5.82
2023-01-02T16:57:17.913Z,6.13
2023-01-02T16:59:44.210Z,6.13
2023-01-02T17:02:12.407Z,6.65
2023-01-02T17:04:38.722Z,7.05
2023-01-02T17:07:04.976Z,6.50
2023-01-02T17:09:33.585Z,6.22
2023-01-02T17:12:03.185Z,6.30
2023-01-02T17:14:30.936Z,7.53
2023-01-02T17:17:02.766Z,10.45
2023-01-02T17:19:29.650Z,8.07
2023-01-02T17:21:55.944Z,10.20
2023-01-02T17:24:22.289Z,8.40
2023-01-02T17:26:48.613Z,11.13
2023-01-02T17:29:14.908Z,11.80
2023-01-02T17:31:41.527Z,10.88
2023-01-02T17:34:07.929Z,9.43
2023-01-02T17:36:34.245Z,7.88
2023-01-02T17:39:00.604Z,6.97
2023-01-02T17:41:27.023Z,4.93
2023-01-02T17:44:01.640Z,5.10
2023-01-02T17:49:20.931Z,3.65
2023-01-02T17:51:48.817Z,3.83
2023-01-02T17:54:15.155Z,4.35
2023-01-02T17:56:41.495Z,5.20
2023-01-02T17:59:07.804Z,5.63
2023-01-02T18:01:34.217Z,4.68
2023-01-02T18:04:00.567Z,4.80
2023-01-02T18:06:26.894Z,4.93
2023-01-02T18:08:55.553Z,5.60
2023-01-02T18:11:24.109Z,4.85
2023-01-02T18:13:51.541Z,5.60
2023-01-02T18:16:22.747Z,6.32
2023-01-02T18:18:49.817Z,7.18
2023-01-02T18:21:19.197Z,8.82
2023-01-02T18:23:45.823Z,7.80
2023-01-02T18:26:13.142Z,7.72
2023-01-02T18:28:41.508Z,5.80
2023-01-02T18:31:15.457Z,4.82
2023-01-02T18:33:45.009Z,4.20
2023-01-02T18:36:19.028Z,4.40
2023-01-02T18:38:51.771Z,15.38
2023-01-02T18:41:21.439Z,11.68
2023-01-02T18:43:49.982Z,7.13
2023-01-02T18:46:18.081Z,5.72
2023-01-02T18:48:44.848Z,5.55
2023-01-02T18:51:17.177Z,8.63
2023-01-02T18:53:48.404Z,7.10
2023-01-02T18:56:22.437Z,7.18
2023-01-02T18:58:52.183Z,8.35
2023-01-02T19:01:21.341Z,6.00
2023-01-02T19:03:48.065Z,6.90
2023-01-02T19:06:22.053Z,5.28
2023-01-02T19:08:48.330Z,5.47
2023-01-02T19:11:39.690Z,13.05
2023-01-02T19:14:22.680Z,18.00
2023-01-02T19:17:04.625Z,16.35
2023-01-02T19:19:35.611Z,7.90
2023-01-02T19:22:10.526Z,7.70
2023-01-02T19:24:37.293Z,6.63
2023-01-02T19:27:09.574Z,5.40
2023-01-02T19:29:38.328Z,5.50
2023-01-02T19:32:13.866Z,5.68
2023-01-02T19:34:53.485Z,5.47
2023-01-02T19:37:25.931Z,5.10
2023-01-02T19:39:56.543Z,5.15
2023-01-02T19:42:24.782Z,5.05
2023-01-02T19:44:57.348Z,4.47
2023-01-02T19:47:31.208Z,5.10
2023-01-02T19:49:57.785Z,7.10
2023-01-02T19:52:25.050Z,5.72
2023-01-02T19:54:52.497Z,6.45
2023-01-02T19:57:20.592Z,5.35
2023-01-02T19:59:47.717Z,6.45
2023-01-02T20:02:15.399Z,6.60
2023-01-02T20:04:42.246Z,6.40
2023-01-02T20:07:08.761Z,6.78
2023-01-02T20:09:35.273Z,6.85
2023-01-02T20:12:20.185Z,6.35
2023-01-02T20:14:46.634Z,6.47
2023-01-02T20:17:13.058Z,6.97
2023-01-02T20:19:39.688Z,6.68
2023-01-02T20:22:06.154Z,7.25
2023-01-02T20:24:32.760Z,6.95
2023-01-02T20:26:59.744Z,7.40
2023-01-02T20:29:26.877Z,7.55
2023-01-02T20:31:53.259Z,8.10
2023-01-02T20:34:19.959Z,8.40
2023-01-02T20:36:46.339Z,9.90
2023-01-02T20:39:12.750Z,10.40
2023-01-02T20:41:40.066Z,10.88
2023-01-02T20:44:10.292Z,11.35
2023-01-02T20:46:36.921Z,11.00
2023-01-02T20:49:03.999Z,11.07
2023-01-02T20:51:30.565Z,11.00
2023-01-02T20:53:57.359Z,13.43
2023-01-02T20:56:23.660Z,17.42
2023-01-02T20:58:51.696Z,18.42
2023-01-02T21:01:19.007Z,17.05
2023-01-02T21:03:45.657Z,14.93
2023-01-02T21:06:12.152Z,14.82
2023-01-02T21:08:38.491Z,13.77
2023-01-02T21:11:05.345Z,11.80
2023-01-02T21:13:31.820Z,10.32
2023-01-02T21:15:58.350Z,10.00
2023-01-02T21:18:26.123Z,10.95
2023-01-02T21:21:02.907Z,11.43
2023-01-02T21:23:29.954Z,11.40
2023-01-02T21:25:56.673Z,11.65
2023-01-02T21:28:23.160Z,12.07
2023-01-02T21:30:49.885Z,11.13
2023-01-02T21:33:17.486Z,12.13
2023-01-02T21:35:45.991Z,10.95
2023-01-02T21:38:23.748Z,10.27
2023-01-02T21:41:30.718Z,10.82
2023-01-02T21:43:57.117Z,10.70
2023-01-02T21:46:35.348Z,11.13
2023-01-02T21:49:32.253Z,12.07
2023-01-02T21:52:02.520Z,11.52
2023-01-02T21:54:29.079Z,11.98
2023-01-02T21:57:07.359Z,13.18
2023-01-02T21:59:36.240Z,11.77
2023-01-02T22:02:12.703Z,11.70
2023-01-02T22:04:45.291Z,12.25
2023-01-02T22:07:33.597Z,13.38
2023-01-02T22:13:00.033Z,13.55
2023-01-02T22:15:28.459Z,12.70
2023-01-02T22:17:57.946Z,11.52
2023-01-02T22:20:40.824Z,10.38
2023-01-02T22:23:17.510Z,11.30
2023-01-02T22:28:32.598Z,11.63
2023-01-02T22:30:59.027Z,11.43
2023-01-02T22:33:27.921Z,10.70
2023-01-02T22:35:56.229Z,11.98
2023-01-02T22:38:55.122Z,11.35
2023-01-02T22:46:41.652Z,11.95
2023-01-02T22:49:29.497Z,11.73
2023-01-02T22:52:07.123Z,12.70
2023-01-02T22:54:33.891Z,11.95
2023-01-02T22:57:00.225Z,11.35
2023-01-02T22:59:29.188Z,10.93
2023-01-02T23:01:58.441Z,10.85
2023-01-02T23:04:25.359Z,10.30
2023-01-02T23:12:12.093Z,9.98
2023-01-02T23:14:38.611Z,10.07
2023-01-02T23:17:23.553Z,10.52
2023-01-02T23:19:50.330Z,9.65
2023-01-02T23:22:16.806Z,10.75
2023-01-02T23:24:43.122Z,11.98
2023-01-02T23:27:10.256Z,10.82
2023-01-02T23:29:36.782Z,10.13
2023-01-02T23:32:03.688Z,10.80
2023-01-02T23:34:30.306Z,9.70
2023-01-02T23:36:57.508Z,9.05
2023-01-02T23:39:25.295Z,9.63
2023-01-02T23:41:52.080Z,9.98
2023-01-02T23:44:18.571Z,9.68
2023-01-02T23:46:45.950Z,10.18
2023-01-02T23:49:12.744Z,10.50
2023-01-02T23:51:39.785Z,9.00
2023-01-02T23:54:06.873Z,9.75
2023-01-02T23:56:34.386Z,9.75
2023-01-02T23:59:01.969Z,9.00
